createdAt,value
2019-02-21T04:28:31.112Z,3.60
2019-02-21T04:31:01.431Z,3.80
2019-02-21T04:33:43.227Z,4.00
2019-02-21T04:36:25.650Z,4.10
2019-02-21T04:39:07.747Z,4.10
2019-02-21T04:41:50.015Z,3.70
2019-02-21T04:44:32.832Z,3.70
2019-02-21T04:47:16.598Z,3.70
2019-02-21T04:49:59.152Z,3.80
2019-02-21T04:52:40.680Z,3.60
2019-02-21T04:55:22.575Z,3.60
2019-02-21T04:58:04.491Z,3.60
2019-02-21T05:00:46.325Z,3.50
2019-02-21T05:03:28.157Z,3.40
2019-02-21T05:06:10.346Z,3.40
2019-02-21T05:08:52.390Z,3.40
2019-02-21T05:11:34.374Z,3.40
2019-02-21T05:14:16.762Z,3.60
2019-02-21T05:17:00.735Z,3.50
2019-02-21T05:19:42.655Z,3.50
2019-02-21T05:22:24.692Z,3.60
2019-02-21T05:25:06.512Z,3.80
2019-02-21T05:28:07.509Z,3.80
2019-02-21T05:30:50.838Z,3.80
2019-02-21T05:33:51.939Z,4.10
2019-02-21T05:36:44.766Z,4.10
2019-02-21T05:39:45.330Z,4.10
2019-02-21T05:42:46.307Z,3.80
2019-02-21T05:45:47.208Z,3.80
2019-02-21T05:48:40.539Z,4.00
2019-02-21T05:51:33.745Z,4.00
2019-02-21T05:54:34.482Z,4.10
2019-02-21T05:57:26.611Z,4.20
2019-02-21T06:00:30.273Z,3.80
2019-02-21T06:03:35.901Z,3.90
2019-02-21T06:06:41.814Z,4.00
2019-02-21T06:09:42.853Z,4.00
2019-02-21T06:12:33.928Z,3.90
2019-02-21T06:15:38.982Z,4.00
2019-02-21T06:18:42.833Z,4.10
2019-02-21T06:21:39.867Z,4.00
2019-02-21T06:24:32.990Z,4.10
2019-02-21T06:27:34.650Z,4.20
2019-02-21T06:30:39.863Z,4.20
2019-02-21T06:33:10.158Z,4.40
2019-02-21T06:35:55.592Z,4.40
2019-02-21T06:38:37.555Z,4.50
2019-02-21T06:41:20.007Z,4.70
2019-02-21T06:44:02.666Z,4.60
2019-02-21T06:46:44.244Z,4.70
2019-02-21T06:49:32.609Z,4.80
2019-02-21T06:52:09.761Z,4.60
2019-02-21T06:54:51.922Z,4.80
2019-02-21T06:57:33.988Z,4.80
2019-02-21T07:00:15.934Z,4.90
2019-02-21T07:02:57.945Z,4.90
2019-02-21T07:05:40.139Z,5.00
2019-02-21T07:08:24.467Z,4.80
2019-02-21T07:11:06.723Z,5.00
2019-02-21T07:13:48.830Z,5.00
2019-02-21T07:16:31.207Z,5.00
2019-02-21T07:19:13.340Z,5.10
2019-02-21T07:21:55.658Z,5.20
2019-02-21T07:24:39.807Z,5.00
2019-02-21T07:27:21.955Z,4.80
2019-02-21T07:30:04.145Z,5.00
2019-02-21T07:32:47.059Z,5.10
2019-02-21T07:35:28.626Z,5.00
2019-02-21T07:38:10.969Z,5.00
2019-02-21T07:40:52.946Z,5.10
2019-02-21T07:43:34.974Z,5.10
2019-02-21T07:46:17.391Z,5.10
2019-02-21T07:48:59.436Z,5.20
2019-02-21T07:51:41.646Z,4.70
2019-02-21T07:54:23.780Z,4.60
2019-02-21T07:57:08.473Z,4.90
2019-02-21T07:59:49.758Z,4.80
2019-02-21T08:02:32.498Z,5.00
2019-02-21T08:05:14.677Z,5.20
2019-02-21T08:07:57.000Z,5.40
2019-02-21T08:10:39.333Z,5.50
2019-02-21T08:13:21.215Z,5.20
2019-02-21T08:16:03.575Z,5.50
2019-02-21T08:18:46.031Z,5.80
2019-02-21T08:21:28.310Z,5.90
2019-02-21T08:24:11.660Z,6.00
2019-02-21T08:26:53.881Z,5.70
2019-02-21T08:29:35.825Z,5.90
2019-02-21T08:32:20.885Z,6.00
2019-02-21T08:35:03.245Z,6.00
2019-02-21T08:37:45.662Z,6.10
2019-02-21T08:40:26.157Z,6.20
2019-02-21T08:43:08.248Z,6.30
2019-02-21T08:45:51.921Z,6.50
2019-02-21T08:48:34.431Z,6.60
2019-02-21T08:51:18.443Z,6.60
2019-02-21T08:54:00.324Z,6.60
2019-02-21T08:56:42.545Z,6.60
2019-02-21T08:59:24.761Z,6.60
2019-02-21T09:02:06.973Z,6.80
2019-02-21T09:04:37.932Z,6.90
2019-02-21T09:07:21.304Z,7.00
2019-02-21T09:10:03.800Z,7.00
2019-02-21T09:12:48.497Z,6.90
2019-02-21T09:15:31.878Z,7.10
2019-02-21T09:18:13.842Z,7.00
2019-02-21T09:20:55.723Z,7.00
2019-02-21T09:23:38.021Z,7.00
2019-02-21T09:26:21.743Z,7.00
2019-02-21T09:29:06.227Z,7.00
2019-02-21T09:31:48.244Z,7.00
2019-02-21T09:34:30.891Z,6.90
2019-02-21T09:37:13.004Z,7.00
2019-02-21T09:39:55.443Z,6.80
2019-02-21T09:42:37.450Z,7.00
2019-02-21T09:45:19.433Z,7.10
2019-02-21T09:48:01.555Z,6.50
2019-02-21T09:50:44.587Z,6.30
2019-02-21T09:53:26.837Z,6.60
2019-02-21T09:56:08.612Z,6.90
2019-02-21T09:58:50.881Z,6.90
2019-02-21T10:01:32.842Z,7.20
2019-02-21T10:04:15.129Z,7.10
2019-02-21T10:06:57.452Z,7.00
2019-02-21T10:09:39.556Z,7.10
2019-02-21T10:12:21.996Z,7.30
2019-02-21T10:15:03.955Z,7.50
2019-02-21T10:17:46.536Z,7.50
2019-02-21T10:20:28.829Z,7.80
2019-02-21T10:23:11.076Z,8.00
2019-02-21T10:25:53.381Z,7.90
2019-02-21T10:28:36.005Z,7.80
2019-02-21T10:31:18.845Z,8.20
2019-02-21T10:34:03.260Z,8.60
2019-02-21T10:36:46.075Z,8.70
2019-02-21T10:39:17.611Z,8.90
2019-02-21T10:42:06.997Z,9.10
2019-02-21T10:44:49.014Z,9.10
2019-02-21T10:47:31.343Z,8.90
2019-02-21T10:50:14.449Z,9.00
2019-02-21T10:52:57.332Z,8.80
2019-02-21T10:55:39.586Z,9.00
2019-02-21T10:58:22.037Z,9.30
2019-02-21T11:01:03.703Z,9.50
2019-02-21T11:03:45.963Z,9.70
2019-02-21T11:06:28.831Z,9.90
2019-02-21T11:09:13.971Z,9.90
2019-02-21T11:11:55.992Z,9.80
2019-02-21T11:14:47.200Z,9.80
2019-02-21T11:17:21.675Z,9.80
2019-02-21T11:20:04.242Z,9.90
2019-02-21T11:22:47.241Z,10.00
2019-02-21T11:25:29.682Z,9.80
2019-02-21T11:28:11.926Z,9.90
2019-02-21T11:30:53.817Z,10.00
2019-02-21T11:33:35.913Z,10.10
2019-02-21T11:36:18.300Z,9.90
2019-02-21T11:38:59.799Z,9.60
2019-02-21T11:41:41.732Z,9.70
2019-02-21T11:44:23.334Z,9.20
2019-02-21T11:47:05.118Z,9.50
2019-02-21T11:49:47.187Z,9.50
2019-02-21T11:52:28.989Z,9.90
2019-02-21T11:55:10.934Z,9.70
2019-02-21T11:57:53.264Z,9.70
2019-02-21T12:00:35.353Z,10.10
2019-02-21T12:03:17.448Z,10.30
2019-02-21T12:05:59.548Z,10.50
2019-02-21T12:08:41.260Z,10.50
2019-02-21T12:11:23.451Z,10.40
2019-02-21T12:14:05.890Z,10.40
2019-02-21T12:16:47.943Z,10.70
2019-02-21T12:19:29.753Z,10.80
2019-02-21T12:22:11.810Z,10.80
2019-02-21T12:24:57.588Z,10.90
2019-02-21T12:27:39.285Z,10.80
2019-02-21T12:30:21.074Z,10.90
2019-02-21T12:32:56.153Z,11.20
2019-02-21T12:35:47.644Z,11.20
2019-02-21T12:38:31.615Z,11.50
2019-02-21T12:41:13.782Z,11.50
2019-02-21T12:43:57.430Z,11.60
2019-02-21T12:46:39.914Z,11.50
2019-02-21T12:49:21.989Z,11.50
2019-02-21T12:52:03.909Z,11.50
2019-02-21T12:54:34.206Z,11.50
2019-02-21T12:57:23.750Z,11.30
2019-02-21T13:00:06.058Z,11.30
2019-02-21T13:02:48.583Z,10.60
2019-02-21T13:05:40.615Z,10.30
2019-02-21T13:08:14.811Z,10.50
2019-02-21T13:10:56.607Z,10.70
2019-02-21T13:13:38.480Z,10.80
2019-02-21T13:16:20.550Z,11.10
2019-02-21T13:19:02.718Z,11.20
2019-02-21T13:21:44.857Z,11.30
2019-02-21T13:27:07.960Z,11.40
2019-02-21T13:29:49.955Z,11.40
2019-02-21T13:32:32.286Z,11.50
2019-02-21T13:35:14.037Z,11.60
2019-02-21T13:37:55.817Z,11.50
2019-02-21T13:40:37.818Z,11.70
2019-02-21T13:43:19.661Z,11.90
2019-02-21T13:46:02.042Z,12.10
2019-02-21T13:48:44.225Z,12.30
2019-02-21T13:51:26.341Z,12.30
2019-02-21T13:54:08.519Z,12.30
2019-02-21T13:56:50.544Z,12.20
2019-02-21T13:59:35.057Z,12.30
2019-02-21T14:02:17.269Z,12.20
2019-02-21T14:04:59.338Z,12.40
2019-02-21T14:07:41.581Z,12.20
2019-02-21T14:10:23.648Z,12.40
2019-02-21T14:13:06.033Z,12.40
2019-02-21T14:15:48.630Z,12.40
2019-02-21T14:18:30.828Z,12.60
2019-02-21T14:21:01.547Z,12.80
2019-02-21T14:23:43.854Z,12.70
2019-02-21T14:26:25.620Z,12.60
2019-02-21T14:29:09.847Z,12.70
2019-02-21T14:31:52.298Z,12.80
2019-02-21T14:34:34.519Z,13.00
2019-02-21T14:37:16.200Z,13.50
2019-02-21T14:39:58.556Z,14.50
2019-02-21T14:42:45.130Z,16.30
2019-02-21T14:45:28.744Z,17.90
2019-02-21T14:48:11.719Z,19.60
2019-02-21T14:50:54.368Z,21.10
2019-02-21T14:53:36.214Z,20.70
2019-02-21T14:56:20.045Z,20.10
2019-02-21T14:59:05.905Z,18.70
2019-02-21T15:01:48.620Z,18.20
2019-02-21T15:04:31.362Z,18.20
2019-02-21T15:07:15.519Z,17.30
2019-02-21T15:09:47.808Z,15.70
2019-02-21T15:15:52.040Z,14.60
2019-02-21T15:18:36.913Z,14.30
2019-02-21T15:21:21.132Z,13.80
2019-02-21T15:24:04.183Z,13.90
2019-02-21T15:26:47.005Z,14.00
2019-02-21T15:29:32.109Z,13.70
2019-02-21T15:32:14.575Z,13.40
2019-02-21T15:34:57.745Z,13.20
2019-02-21T15:37:40.979Z,12.90
2019-02-21T15:40:25.022Z,12.80
2019-02-21T15:43:07.551Z,12.60
2019-02-21T15:45:50.421Z,12.60
2019-02-21T15:48:32.625Z,12.40
2019-02-21T15:51:15.997Z,12.20
2019-02-21T15:53:58.659Z,12.20
2019-02-21T15:56:41.248Z,12.00
2019-02-21T15:59:22.630Z,11.90
2019-02-21T16:02:04.934Z,11.80
2019-02-21T16:04:47.648Z,11.80
2019-02-21T16:07:29.830Z,11.80
2019-02-21T16:10:12.038Z,11.70
2019-02-21T16:12:53.881Z,11.70
2019-02-21T16:15:36.302Z,11.70
2019-02-21T16:18:18.036Z,11.70
2019-02-21T16:21:00.159Z,11.70
2019-02-21T16:23:42.146Z,11.70
2019-02-21T16:26:25.576Z,11.50
2019-02-21T16:29:08.499Z,11.60
2019-02-21T16:31:53.223Z,11.40
2019-02-21T16:34:35.555Z,11.40
2019-02-21T16:37:19.057Z,11.40
2019-02-21T16:40:01.213Z,11.40
2019-02-21T16:42:42.954Z,11.30
2019-02-21T16:45:14.809Z,11.30
2019-02-21T16:47:57.332Z,11.30
2019-02-21T16:50:39.399Z,11.20
2019-02-21T16:53:21.696Z,11.10
2019-02-21T16:55:52.418Z,11.00
2019-02-21T16:58:34.037Z,11.00
2019-02-21T17:01:17.739Z,11.10
2019-02-21T17:04:00.263Z,11.20
2019-02-21T17:06:42.806Z,11.30
2019-02-21T17:09:24.946Z,11.20
2019-02-21T17:12:06.798Z,11.20
2019-02-21T17:14:56.537Z,11.20
2019-02-21T17:18:03.569Z,11.20
2019-02-21T17:20:36.930Z,11.10
2019-02-21T17:26:23.682Z,10.90
2019-02-21T17:29:03.933Z,11.00
2019-02-21T17:32:11.634Z,11.00
2019-02-21T17:34:35.377Z,11.00
2019-02-21T17:37:24.876Z,11.00
2019-02-21T17:40:05.132Z,10.90
2019-02-21T17:42:47.600Z,10.90
2019-02-21T17:45:32.680Z,10.90
2019-02-21T17:52:19.213Z,10.70
2019-02-21T17:53:53.241Z,10.70
2019-02-21T17:59:27.590Z,10.60
2019-02-21T18:02:11.437Z,10.50
2019-02-21T18:13:54.540Z,10.60
2019-02-21T18:16:36.992Z,10.50
2019-02-21T18:22:13.686Z,10.50
2019-02-21T18:24:55.333Z,10.60
2019-02-21T18:27:37.658Z,10.60
2019-02-21T18:30:19.790Z,10.70
2019-02-21T18:33:01.731Z,10.60
2019-02-21T18:35:46.567Z,10.50
2019-02-21T18:38:28.309Z,10.60
2019-02-21T18:41:10.546Z,10.50
2019-02-21T18:43:53.517Z,10.50
2019-02-21T18:46:35.513Z,10.40
2019-02-21T18:49:17.874Z,10.50
2019-02-21T18:54:40.895Z,10.40
2019-02-21T18:57:23.183Z,10.40
2019-02-21T19:00:05.011Z,10.30
2019-02-21T19:02:48.702Z,10.30
2019-02-21T19:05:35.886Z,10.20
2019-02-21T19:08:20.853Z,10.20
2019-02-21T19:11:05.226Z,10.10
2019-02-21T19:13:47.660Z,10.10
2019-02-21T19:16:29.826Z,10.10
2019-02-21T19:19:11.832Z,10.10
2019-02-21T19:21:53.764Z,10.00
2019-02-21T19:24:39.234Z,10.00
2019-02-21T19:27:21.340Z,10.10
2019-02-21T19:30:03.821Z,10.10
2019-02-21T19:32:47.415Z,10.10
2019-02-21T19:35:33.120Z,10.10
2019-02-21T19:38:15.017Z,10.10
2019-02-21T19:40:56.895Z,10.10
2019-02-21T19:43:38.487Z,10.00
2019-02-21T19:46:20.594Z,10.00
2019-02-21T19:49:12.985Z,10.00
2019-02-21T19:51:53.578Z,10.10
2019-02-21T19:54:35.993Z,10.20
2019-02-21T19:57:18.098Z,10.10
2019-02-21T20:00:00.235Z,10.10
2019-02-21T20:02:44.795Z,10.00
2019-02-21T20:05:28.899Z,10.10
2019-02-21T20:08:21.110Z,10.00
2019-02-21T20:10:54.523Z,10.00
2019-02-21T20:13:37.180Z,10.00
2019-02-21T20:16:19.702Z,9.80
2019-02-21T20:19:01.564Z,9.70
2019-02-21T20:21:43.597Z,9.60
2019-02-21T20:24:25.694Z,9.60
2019-02-21T20:27:07.684Z,9.60
2019-02-21T20:29:49.987Z,9.60
2019-02-21T20:32:33.604Z,9.60
2019-02-21T20:35:07.022Z,9.60
2019-02-21T20:37:50.360Z,9.30
2019-02-21T20:40:32.759Z,9.30
2019-02-21T20:43:15.348Z,9.40
2019-02-21T20:45:59.960Z,9.50
2019-02-21T20:48:41.665Z,9.50
2019-02-21T20:51:12.379Z,9.60
2019-02-21T20:54:01.924Z,9.50
2019-02-21T20:56:51.123Z,9.50
2019-02-21T20:59:32.995Z,9.60
2019-02-21T21:02:15.767Z,9.60
2019-02-21T21:04:59.001Z,9.60
2019-02-21T21:07:42.101Z,9.70
2019-02-21T21:10:26.808Z,9.60
2019-02-21T21:13:09.349Z,9.70
2019-02-21T21:15:54.445Z,9.70
2019-02-21T21:18:36.028Z,9.70
2019-02-21T21:21:19.630Z,9.70
2019-02-21T21:24:06.831Z,9.70
2019-02-21T21:27:08.774Z,9.80
2019-02-21T21:29:56.840Z,9.80
2019-02-21T21:33:20.327Z,9.60
2019-02-21T21:35:52.097Z,9.70
2019-02-21T21:38:37.834Z,9.40
2019-02-21T21:41:25.148Z,9.40
2019-02-21T21:44:15.094Z,9.40
2019-02-21T21:46:59.565Z,9.40
2019-02-21T21:49:42.389Z,9.50
2019-02-21T21:52:24.936Z,9.50
2019-02-21T21:55:11.591Z,9.60
